Lafayette Regional Airport
KLFT : now visible

Airfield :











YOU CAN JOIN US ON...

 
LOGIN :

Register | Disclaimer

   EN    FR    IT 

 









Legend :    VFR   Marginal VFR   IFR   Intensive IFR   Very Intensive IFR
Visi :
Ceiling :
>= 8 km
>= 3000ft
5 to 8 km
1000 to 3000 ft
1500m to 5 km
500 to 1000 ft
800 to 1500m
200 to 500 ft
< 800m
< 200 ft
Symbols :   Thunderstorms  Fog  Heavy snow  Heavy precipitations  Wind > 20 kt






- Airport Elevation : 42 ft
- IATA code : LFT


KLFT - Lafayette Regional

CURRENT METAR :
  • 082037Z 00000KT 10SM FEW100 SCT110 27/23 A3011 RMK AO2 LTG DSNT W AND NW TSE03 T02670228

EXPIRED METARs :
  • 082009Z 32007KT 3SM VCTS HZ FEW049 FEW060 SCT120 26/23 A3011 RMK AO2 LTG DSNT ALQDS TSE03 T02560228
  • 082000Z 33009KT 10SM TS SCT049 26/23 A3012 RMK AO2 LTG DSNT NE AND W T02610233
  • 081953Z 34010KT 10SM TS BKN012 BKN055 27/23 A3013 RMK AO2 LTG DSNT W RAB14E25 TSB14 SLP202 P0005 T02670233
  • 081928Z VRB04KT 1 3/4SM TS HZ BKN012 OVC047 27/23 A3013 RMK AO2 LTG DSNT W RAB14E25 TSB14 P0004 T02720228
  • 081920Z 24012KT 4SM -TSRA BKN012 OVC047 27/23 A3013 RMK AO2 LTG DSNT W RAB14 TSB14 P0004 T02720228
  • 081908Z 18006KT 10SM BKN012 BKN047 OVC060 28/22 A3013 RMK AO2 LTG DSNT W T02780222
  • 081853Z 15006G15KT 10SM BKN047 BKN055 OVC095 29/22 A3012 RMK AO2 LTG DSNT SW AND W SLP198 T02890222
  • 081753Z VRB03KT 10SM BKN041 33/22 A3012 RMK AO2 LTG DSNT SE AND SW SLP199 T03330222 10333 20239 58005

TAF KLFT
Valid from the 08 at 19:00 until the 09 at 18:00 UTC


081928Z 0819/0918 19005KT P6SM VCTS SCT030CB SCT250
TEMPO 0819/0820 2SM TSRA BKN015CB
FM090100 VRB03KT P6SM SCT250
KZHU FIR / North America



MET'MAP, your aeronautical weather chart ! - Copyright ORBIFLY December 2007 - Disclaimer

ORBIFLY MET'MAP TEAM :

Programming & Development : Alexandra Zaïnal
Concept & original design : Baudouin d'Aumeries
Assistance for programming : Marc-Olivier Méhu
Technical & hardware support : Manuel Goepfert

Contact : metmap@orbifly.com




SOURCES & CREDITS :

   NOAA       Earth
Advisory